Time;durP1;ratioP1;P1;durP2;ratioP2;P2;SDS_P1;SDS_P2;PMS_P1;PMS_P2;Temp;Humidity;BMP_temperature;BMP_pressure;BME280_temperature;BME280_humidity;BME280_pressure;Samples;Min_cycle;Max_cycle;Signal;HPM_P1;HPM_P2
2024/01/16 00:00:29;;;;;;;6.78;2.72;;;;;;;-5.80;100.00;93233.97;5051089;28;20159;-61
2024/01/16 00:02:56;;;;;;;7.10;2.83;;;;;;;-5.73;100.00;93234.22;5051902;28;20507;-61
2024/01/16 00:05:23;;;;;;;6.95;3.05;;;;;;;-5.71;100.00;93234.69;5051485;28;20037;-61
2024/01/16 00:07:50;;;;;;;7.22;3.20;;;;;;;-5.73;100.00;93236.91;5052201;28;20041;-61
2024/01/16 00:10:17;;;;;;;6.22;2.90;;;;;;;-5.85;100.00;93242.22;5051070;28;20044;-61
2024/01/16 00:12:44;;;;;;;7.75;3.22;;;;;;;-5.99;100.00;93236.41;5051879;28;20393;-62
2024/01/16 00:15:10;;;;;;;7.15;3.15;;;;;;;-6.14;100.00;93245.78;5051346;28;20040;-61
2024/01/16 00:17:37;;;;;;;6.57;3.05;;;;;;;-6.11;100.00;93234.44;5051453;28;20041;-61
2024/01/16 00:20:05;;;;;;;8.40;4.00;;;;;;;-6.48;100.00;93226.25;5051531;28;20041;-62
2024/01/16 00:22:32;;;;;;;8.05;3.28;;;;;;;-6.47;100.00;93230.50;5051327;28;20067;-62
2024/01/16 00:24:59;;;;;;;12.48;3.40;;;;;;;-6.41;100.00;93228.41;5051768;28;20033;-61
2024/01/16 00:27:26;;;;;;;8.52;3.60;;;;;;;-6.43;100.00;93231.41;5051101;28;20053;-61
2024/01/16 00:29:52;;;;;;;7.88;3.22;;;;;;;-6.39;100.00;93232.31;5051724;28;20110;-62
2024/01/16 00:32:19;;;;;;;7.95;3.58;;;;;;;-6.43;100.00;93231.41;5050554;28;20404;-61
2024/01/16 00:34:46;;;;;;;9.32;3.30;;;;;;;-6.56;100.00;93235.91;5051463;28;20052;-61
2024/01/16 00:37:13;;;;;;;7.63;3.05;;;;;;;-6.60;100.00;93234.97;5051355;28;20040;-62
2024/01/16 00:39:40;;;;;;;7.50;3.20;;;;;;;-6.56;100.00;93241.22;5050442;28;21611;-60
2024/01/16 00:42:07;;;;;;;7.63;3.70;;;;;;;-6.63;100.00;93231.06;5051432;28;20033;-61
2024/01/16 00:44:34;;;;;;;9.65;3.55;;;;;;;-6.71;100.00;93245.25;5066148;28;20094;-61
2024/01/16 00:47:01;;;;;;;9.43;3.85;;;;;;;-6.95;100.00;93243.19;5051396;28;20044;-60
2024/01/16 00:49:29;;;;;;;7.45;3.30;;;;;;;-6.88;100.00;93242.66;5050893;28;20047;-60
2024/01/16 00:51:56;;;;;;;9.00;3.72;;;;;;;-6.92;100.00;93245.22;5048731;28;20452;-60
2024/01/16 00:54:22;;;;;;;9.10;3.33;;;;;;;-7.00;100.00;93254.03;5050359;28;20121;-60
2024/01/16 00:56:50;;;;;;;8.20;3.60;;;;;;;-7.06;100.00;93255.31;5051215;28;20037;-61
2024/01/16 00:59:16;;;;;;;7.38;3.13;;;;;;;-7.05;100.00;93262.97;5050625;28;20049;-60
2024/01/16 01:01:43;;;;;;;7.55;3.22;;;;;;;-7.08;100.00;93252.19;5049637;28;20044;-60
2024/01/16 01:04:10;;;;;;;6.88;3.10;;;;;;;-7.03;100.00;93244.00;5050807;28;20429;-60
2024/01/16 01:06:37;;;;;;;6.55;3.30;;;;;;;-7.12;100.00;93252.06;5050032;28;20397;-60
2024/01/16 01:09:03;;;;;;;8.10;3.30;;;;;;;-7.30;100.00;93248.69;5050737;28;20352;-61
2024/01/16 01:11:30;;;;;;;8.55;3.55;;;;;;;-7.33;100.00;93256.53;5050453;28;20037;-61
2024/01/16 01:13:57;;;;;;;6.35;2.80;;;;;;;-7.38;100.00;93251.34;5050940;28;20096;-60
2024/01/16 01:16:24;;;;;;;9.63;3.03;;;;;;;-7.40;100.00;93246.38;5050067;28;20439;-60
2024/01/16 01:18:50;;;;;;;6.80;2.95;;;;;;;-7.44;100.00;93258.75;5050703;28;20043;-61
2024/01/16 01:21:17;;;;;;;9.07;3.05;;;;;;;-7.48;100.00;93261.28;5049887;28;20387;-60
2024/01/16 01:23:44;;;;;;;7.03;2.85;;;;;;;-7.48;100.00;93260.50;5050656;28;20049;-61
2024/01/16 01:26:13;;;;;;;8.07;3.17;;;;;;;-7.65;100.00;93262.09;5050518;28;20475;-60
2024/01/16 01:28:41;;;;;;;6.53;2.83;;;;;;;-8.08;100.00;93267.50;5049372;28;21050;-60
2024/01/16 01:31:09;;;;;;;11.30;4.22;;;;;;;-8.08;100.00;93276.25;5050468;28;20040;-60
2024/01/16 01:33:36;;;;;;;10.88;4.03;;;;;;;-8.09;100.00;93274.72;5049400;28;20045;-60
2024/01/16 01:36:04;;;;;;;8.70;3.50;;;;;;;-8.08;100.00;93278.94;5050047;28;20045;-60
2024/01/16 01:38:30;;;;;;;7.93;3.40;;;;;;;-7.99;100.00;93278.13;5049686;28;20051;-60
2024/01/16 01:40:57;;;;;;;8.30;3.25;;;;;;;-8.02;100.00;93284.88;5049071;28;20389;-61
2024/01/16 01:43:25;;;;;;;6.57;3.00;;;;;;;-8.29;100.00;93296.63;5049310;28;20041;-60
2024/01/16 01:46:03;;;;;;;7.30;3.03;;;;;;;-8.30;100.00;93305.72;5050391;28;20043;-60
2024/01/16 01:48:31;;;;;;;6.95;3.30;;;;;;;-8.26;100.00;93306.66;5049338;28;20037;-60
2024/01/16 01:51:00;;;;;;;6.72;2.60;;;;;;;-8.05;100.00;93296.16;5050167;28;20041;-61
2024/01/16 01:53:30;;;;;;;8.57;2.80;;;;;;;-8.02;100.00;93300.84;5047225;28;20040;-61
2024/01/16 01:55:57;;;;;;;8.57;3.17;;;;;;;-7.98;100.00;93301.78;5049812;28;20658;-61
2024/01/16 01:58:23;;;;;;;7.78;3.00;;;;;;;-7.94;100.00;93305.41;5049222;28;20079;-60
2024/01/16 02:00:50;;;;;;;8.50;3.47;;;;;;;-7.93;100.00;93300.84;5049624;28;20045;-61
2024/01/16 02:03:18;;;;;;;7.03;2.72;;;;;;;-7.99;100.00;93300.22;5049241;28;20049;-60
2024/01/16 02:05:45;;;;;;;6.65;2.85;;;;;;;-8.27;100.00;93300.56;5049805;28;20485;-60
2024/01/16 02:08:12;;;;;;;8.35;3.10;;;;;;;-8.48;100.00;93304.94;5049848;28;20037;-60
2024/01/16 02:10:45;;;;;;;8.48;2.95;;;;;;;-8.40;100.00;93301.47;5049350;28;20041;-61
2024/01/16 02:13:12;;;;;;;7.85;3.25;;;;;;;-8.36;100.00;93307.72;5049644;28;20400;-60
2024/01/16 02:15:41;;;;;;;7.93;3.08;;;;;;;-8.33;100.00;93301.00;5049242;28;20478;-60
2024/01/16 02:18:07;;;;;;;6.70;3.10;;;;;;;-8.29;100.00;93313.38;5049569;28;20047;-59
2024/01/16 02:20:34;;;;;;;6.72;2.78;;;;;;;-8.36;100.00;93310.41;5048766;28;20037;-60
2024/01/16 02:23:03;;;;;;;6.85;3.10;;;;;;;-8.39;100.00;93307.56;5048741;28;20078;-61
2024/01/16 02:25:30;;;;;;;5.93;2.88;;;;;;;-8.51;100.00;93309.00;5048566;28;20383;-61
2024/01/16 02:27:57;;;;;;;7.47;2.95;;;;;;;-8.49;100.00;93312.13;5064570;28;20406;-61
2024/01/16 02:30:24;;;;;;;6.18;2.80;;;;;;;-8.53;100.00;93297.09;5048974;28;20044;-60
2024/01/16 02:32:51;;;;;;;8.10;3.00;;;;;;;-8.53;100.00;93297.91;5049401;28;20037;-60
2024/01/16 02:35:18;;;;;;;6.75;3.08;;;;;;;-8.54;100.00;93301.63;5048969;28;20045;-60
2024/01/16 02:37:45;;;;;;;7.90;2.95;;;;;;;-8.49;100.00;93301.50;5049318;28;20119;-60
2024/01/16 02:40:12;;;;;;;6.07;2.60;;;;;;;-8.51;100.00;93306.34;5049217;28;20714;-61
2024/01/16 02:42:38;;;;;;;7.03;3.10;;;;;;;-8.57;100.00;93307.59;5048024;28;20036;-60
2024/01/16 02:45:06;;;;;;;6.78;2.80;;;;;;;-8.79;100.00;93302.34;5049344;28;20041;-60
2024/01/16 02:47:33;;;;;;;6.45;2.90;;;;;;;-8.75;100.00;93305.97;5048650;28;20106;-61
2024/01/16 02:50:00;;;;;;;7.95;3.20;;;;;;;-8.72;100.00;93294.72;5048928;28;20056;-61
2024/01/16 02:52:27;;;;;;;6.88;2.60;;;;;;;-8.70;100.00;93289.88;5048680;28;20052;-60
2024/01/16 02:54:54;;;;;;;6.55;2.88;;;;;;;-8.77;100.00;93295.66;5049136;28;20049;-60
2024/01/16 02:57:20;;;;;;;7.45;2.80;;;;;;;-8.85;100.00;93299.84;5048833;28;20302;-61
2024/01/16 02:59:47;;;;;;;6.85;3.15;;;;;;;-8.91;100.00;93282.47;5064366;28;20041;-61
2024/01/16 03:02:14;;;;;;;8.02;3.17;;;;;;;-8.90;100.00;93292.00;5049197;28;20425;-60
2024/01/16 03:04:41;;;;;;;7.47;3.38;;;;;;;-8.93;100.00;93294.50;5047905;28;20570;-60
2024/01/16 03:07:07;;;;;;;6.55;2.90;;;;;;;-8.90;100.00;93294.66;5048726;28;20029;-60
2024/01/16 03:09:34;;;;;;;6.55;2.97;;;;;;;-9.18;100.00;93301.31;5048336;28;20401;-60
2024/01/16 03:12:01;;;;;;;8.55;3.40;;;;;;;-9.24;100.00;93290.03;5035866;28;20047;-61
2024/01/16 03:14:33;;;;;;;7.07;2.80;;;;;;;-9.20;100.00;93292.84;5048272;28;20055;-60
2024/01/16 03:17:03;;;;;;;7.78;3.08;;;;;;;-9.12;100.00;93297.41;5048970;28;20045;-61
2024/01/16 03:19:30;;;;;;;7.20;2.70;;;;;;;-9.09;100.00;93297.59;5048013;28;20045;-60
2024/01/16 03:21:57;;;;;;;6.25;2.65;;;;;;;-9.09;100.00;93297.59;5046867;28;20375;-61
2024/01/16 03:24:24;;;;;;;7.18;3.00;;;;;;;-9.12;100.00;93292.09;5048289;28;20037;-61
2024/01/16 03:26:50;;;;;;;6.85;3.50;;;;;;;-9.18;100.00;93306.63;5048865;28;20045;-60
2024/01/16 03:29:17;;;;;;;7.13;2.90;;;;;;;-9.21;100.00;93301.91;5048108;28;20448;-61
2024/01/16 03:31:44;;;;;;;7.72;3.35;;;;;;;-9.12;100.00;93305.41;5048574;28;20044;-60
2024/01/16 03:34:11;;;;;;;6.15;2.78;;;;;;;-9.10;100.00;93303.22;5050095;28;20106;-60
2024/01/16 03:36:38;;;;;;;7.95;3.15;;;;;;;-9.14;100.00;93304.91;5051733;28;20102;-60
2024/01/16 03:39:05;;;;;;;6.70;2.75;;;;;;;-9.41;100.00;93311.22;5052696;28;20045;-60
2024/01/16 03:41:32;;;;;;;8.90;2.97;;;;;;;-9.78;100.00;93303.34;5051999;28;20080;-61
2024/01/16 03:43:59;;;;;;;12.05;4.20;;;;;;;-9.65;100.00;93305.16;5067609;28;20166;-61
2024/01/16 03:46:25;;;;;;;10.93;3.95;;;;;;;-9.53;100.00;93306.47;5067301;28;20047;-60
2024/01/16 03:48:52;;;;;;;12.10;3.40;;;;;;;-9.55;100.00;93306.00;5052414;28;20060;-61
2024/01/16 03:51:19;;;;;;;10.57;3.65;;;;;;;-9.65;100.00;93307.81;5051798;28;20444;-60
2024/01/16 03:53:46;;;;;;;9.07;3.30;;;;;;;-9.77;100.00;93299.63;5052191;28;20109;-60
2024/01/16 03:56:16;;;;;;;16.55;6.45;;;;;;;-9.70;100.00;93291.22;5052262;28;20045;-60
2024/01/16 03:58:43;;;;;;;17.48;4.90;;;;;;;-9.60;100.00;93301.56;5051417;28;20731;-61
2024/01/16 04:01:09;;;;;;;14.07;5.68;;;;;;;-9.54;100.00;93294.28;5052065;28;20049;-60
2024/01/16 04:03:38;;;;;;;13.25;4.70;;;;;;;-9.61;100.00;93294.72;5051624;28;20041;-60
2024/01/16 04:06:15;;;;;;;27.27;9.45;;;;;;;-9.66;100.00;93292.97;5051869;28;20045;-60
2024/01/16 04:08:42;;;;;;;16.92;5.82;;;;;;;-9.69;100.00;93287.50;5050705;28;20885;-60
2024/01/16 04:11:13;;;;;;;11.40;4.13;;;;;;;-9.73;100.00;93289.97;5051838;28;20037;-60
2024/01/16 04:13:40;;;;;;;19.10;5.20;;;;;;;-9.76;100.00;93287.13;5033591;28;20566;-60
2024/01/16 04:16:07;;;;;;;14.73;5.88;;;;;;;-9.72;100.00;93290.72;5051532;28;20049;-60
2024/01/16 04:18:39;;;;;;;11.07;4.85;;;;;;;-9.80;100.00;93278.97;5050646;28;20078;-60
2024/01/16 04:21:06;;;;;;;10.63;4.78;;;;;;;-9.84;100.00;93280.66;5050766;28;20045;-60
2024/01/16 04:23:33;;;;;;;12.05;5.18;;;;;;;-9.81;100.00;93288.03;5046875;28;20486;-60
2024/01/16 04:26:00;;;;;;;11.60;4.80;;;;;;;-9.76;100.00;93277.28;5050191;28;20052;-60
2024/01/16 04:28:27;;;;;;;13.43;5.55;;;;;;;-9.71;100.00;93281.69;5050765;28;20041;-60
2024/01/16 04:30:53;;;;;;;13.32;5.50;;;;;;;-9.68;100.00;93286.38;5051289;28;20052;-60
2024/01/16 04:33:21;;;;;;;11.43;4.88;;;;;;;-9.70;100.00;93283.25;5050735;28;20645;-61
2024/01/16 04:35:47;;;;;;;9.15;3.45;;;;;;;-9.66;100.00;93284.22;5051670;28;20094;-61
2024/01/16 04:38:14;;;;;;;11.27;4.20;;;;;;;-9.69;100.00;93274.97;5051384;28;20055;-60
2024/01/16 04:40:41;;;;;;;10.07;3.80;;;;;;;-9.70;100.00;93281.41;5050355;28;20486;-60
2024/01/16 04:43:08;;;;;;;9.75;3.92;;;;;;;-9.65;100.00;93275.16;5051119;28;20037;-60
2024/01/16 04:45:34;;;;;;;9.95;3.63;;;;;;;-9.67;100.00;93266.72;5050260;28;20055;-61
2024/01/16 04:48:01;;;;;;;10.60;4.00;;;;;;;-9.72;100.00;93272.16;5050854;28;20049;-60
2024/01/16 04:50:31;;;;;;;9.95;4.07;;;;;;;-9.74;100.00;93271.66;5050864;28;20516;-60
2024/01/16 04:53:02;;;;;;;10.23;3.72;;;;;;;-9.76;100.00;93264.00;5051095;28;20044;-60
2024/01/16 04:55:29;;;;;;;10.32;3.97;;;;;;;-9.73;100.00;93267.94;5050610;28;20423;-60
2024/01/16 04:57:56;;;;;;;9.18;4.00;;;;;;;-9.79;100.00;93261.19;5050731;28;20056;-61
2024/01/16 05:00:23;;;;;;;11.40;3.90;;;;;;;-9.79;100.00;93263.84;5050573;28;20449;-61
2024/01/16 05:02:51;;;;;;;10.20;3.83;;;;;;;-9.69;100.00;93256.41;5050780;28;20045;-60
2024/01/16 05:05:18;;;;;;;7.80;3.40;;;;;;;-9.78;100.00;93254.78;5050349;28;20049;-60
2024/01/16 05:07:45;;;;;;;8.90;3.25;;;;;;;-9.80;100.00;93259.63;5050411;28;20052;-60
2024/01/16 05:10:12;;;;;;;9.23;3.70;;;;;;;-9.84;100.00;93259.44;5050900;28;20146;-61
2024/01/16 05:12:42;;;;;;;7.13;3.40;;;;;;;-10.00;100.00;93248.41;5050210;28;20043;-60
2024/01/16 05:15:11;;;;;;;11.25;4.30;;;;;;;-10.15;100.00;93249.56;5066048;28;20060;-60
2024/01/16 05:17:38;;;;;;;10.43;4.20;;;;;;;-10.19;100.00;93247.84;5049776;28;20045;-61
2024/01/16 05:20:05;;;;;;;12.43;5.57;;;;;;;-10.12;100.00;93245.53;5050555;28;20048;-61
2024/01/16 05:22:32;;;;;;;13.85;6.35;;;;;;;-10.09;100.00;93243.06;5038284;28;20056;-60
2024/01/16 05:25:00;;;;;;;15.85;6.60;;;;;;;-10.06;100.00;93250.44;5050468;28;20036;-60
2024/01/16 05:27:27;;;;;;;14.27;5.57;;;;;;;-10.14;100.00;93240.53;5050004;28;20033;-60
2024/01/16 05:29:54;;;;;;;12.45;5.10;;;;;;;-10.03;100.00;93232.34;5050300;28;20055;-60
2024/01/16 05:32:21;;;;;;;12.10;4.80;;;;;;;-9.97;100.00;93233.78;5049652;28;20101;-60
2024/01/16 05:34:48;;;;;;;14.85;5.03;;;;;;;-9.87;100.00;93228.19;5049771;28;20040;-60
2024/01/16 05:37:15;;;;;;;11.98;5.63;;;;;;;-9.84;100.00;93224.91;5050012;28;20033;-61
2024/01/16 05:39:42;;;;;;;12.65;5.32;;;;;;;-9.84;100.00;93230.22;5050135;28;20481;-60
2024/01/16 05:42:09;;;;;;;13.05;5.50;;;;;;;-9.89;100.00;93222.41;5050080;28;20055;-62
2024/01/16 05:44:36;;;;;;;13.77;4.80;;;;;;;-9.93;100.00;93226.75;5036622;28;20394;-60
2024/01/16 05:47:04;;;;;;;11.32;4.85;;;;;;;-9.93;100.00;93222.22;5049654;28;20536;-59
2024/01/16 05:49:30;;;;;;;12.70;4.60;;;;;;;-9.95;100.00;93228.94;5049716;28;20479;-61
2024/01/16 05:51:57;;;;;;;9.02;4.47;;;;;;;-9.95;100.00;93239.56;5049379;28;20037;-60
2024/01/16 05:54:24;;;;;;;10.70;4.80;;;;;;;-9.93;100.00;93232.06;5048069;28;20052;-61
2024/01/16 05:56:51;;;;;;;12.55;5.10;;;;;;;-9.92;100.00;93231.78;5049129;28;20043;-60
2024/01/16 05:59:18;;;;;;;11.38;5.13;;;;;;;-10.02;100.00;93220.63;5049202;28;20043;-60
2024/01/16 06:01:45;;;;;;;13.88;5.25;;;;;;;-9.98;100.00;93227.66;5049719;28;20036;-60
2024/01/16 06:04:11;;;;;;;13.18;4.80;;;;;;;-9.94;100.00;93233.16;5049106;28;20052;-60
2024/01/16 06:06:44;;;;;;;33.35;11.25;;;;;;;-9.91;100.00;93233.31;5048673;28;20041;-61
2024/01/16 06:09:13;;;;;;;16.98;5.45;;;;;;;-9.92;100.00;93228.31;5049309;28;20405;-60
2024/01/16 06:11:41;;;;;;;11.43;5.43;;;;;;;-10.00;100.00;93231.72;5048569;28;21515;-60
2024/01/16 06:14:08;;;;;;;9.73;4.53;;;;;;;-10.05;100.00;93229.97;5049317;28;20048;-60
2024/01/16 06:16:35;;;;;;;10.65;4.60;;;;;;;-9.98;100.00;93229.53;5048816;28;20057;-60
2024/01/16 06:19:02;;;;;;;11.70;5.13;;;;;;;-9.99;100.00;93231.41;5049220;28;20076;-60
2024/01/16 06:21:29;;;;;;;13.82;4.97;;;;;;;-9.96;100.00;93230.00;5048681;28;20792;-61
2024/01/16 06:23:56;;;;;;;12.48;4.97;;;;;;;-9.90;100.00;93231.44;5049350;28;20053;-60
2024/01/16 06:26:23;;;;;;;18.38;6.57;;;;;;;-9.85;100.00;93231.34;5048576;28;20399;-60
2024/01/16 06:28:50;;;;;;;21.40;7.60;;;;;;;-9.81;100.00;93231.50;5047621;28;20413;-59
2024/01/16 06:31:17;;;;;;;18.05;7.35;;;;;;;-9.82;100.00;93228.06;5048682;28;20417;-59
2024/01/16 06:33:44;;;;;;;18.92;6.63;;;;;;;-9.83;100.00;93231.03;5048045;28;20051;-60
2024/01/16 06:36:11;;;;;;;18.08;6.72;;;;;;;-9.77;100.00;93227.94;5048667;28;20044;-60
2024/01/16 06:38:40;;;;;;;19.65;7.55;;;;;;;-9.81;100.00;93236.81;5048268;28;20045;-60
2024/01/16 06:41:06;;;;;;;18.13;6.05;;;;;;;-9.83;100.00;93231.81;5049097;28;20041;-60
2024/01/16 06:43:33;;;;;;;15.82;5.70;;;;;;;-9.97;100.00;93229.22;5048177;28;20098;-61
2024/01/16 06:46:00;;;;;;;12.15;4.78;;;;;;;-9.90;100.00;93224.28;5049302;28;20051;-60
2024/01/16 06:48:27;;;;;;;11.77;5.30;;;;;;;-9.89;100.00;93225.06;5048123;28;20440;-60
2024/01/16 06:50:54;;;;;;;15.82;6.00;;;;;;;-9.84;100.00;93246.16;5049104;28;20041;-62
2024/01/16 06:53:21;;;;;;;16.60;6.43;;;;;;;-9.85;100.00;93239.28;5048010;28;20055;-62
2024/01/16 06:55:48;;;;;;;14.60;5.70;;;;;;;-9.80;100.00;93241.81;5049357;28;20052;-61
2024/01/16 06:58:15;;;;;;;9.05;4.20;;;;;;;-9.87;100.00;93244.91;5047633;28;20114;-61
2024/01/16 07:00:42;;;;;;;13.90;5.50;;;;;;;-9.97;100.00;93249.69;5047935;28;20761;-60
2024/01/16 07:03:09;;;;;;;12.57;4.55;;;;;;;-9.94;100.00;93243.75;5048824;28;20049;-61
2024/01/16 07:05:36;;;;;;;16.17;7.18;;;;;;;-9.82;100.00;93227.28;5048328;28;20653;-62
2024/01/16 07:08:03;;;;;;;15.50;7.05;;;;;;;-9.93;100.00;93221.47;5050203;28;20037;-61
2024/01/16 07:10:31;;;;;;;18.88;6.90;;;;;;;-9.92;100.00;93223.00;5051491;28;20048;-61
2024/01/16 07:12:58;;;;;;;20.30;7.85;;;;;;;-9.79;100.00;93213.41;5053308;28;20041;-61
2024/01/16 07:15:25;;;;;;;20.90;8.00;;;;;;;-9.78;100.00;93217.63;5052684;28;20402;-62
2024/01/16 07:17:52;;;;;;;18.88;6.50;;;;;;;-9.69;100.00;93216.56;5053021;28;20388;-61
2024/01/16 07:20:19;;;;;;;18.13;7.28;;;;;;;-9.70;100.00;93211.56;5051982;28;20463;-62
2024/01/16 07:22:46;;;;;;;15.05;5.82;;;;;;;-9.75;100.00;93206.41;5053337;28;20412;-61
2024/01/16 07:25:13;;;;;;;15.55;6.05;;;;;;;-10.02;100.00;93208.13;5052975;28;20488;-61
2024/01/16 07:27:40;;;;;;;13.35;5.72;;;;;;;-9.99;100.00;93204.88;5052876;28;20053;-61
2024/01/16 07:30:07;;;;;;;17.83;6.47;;;;;;;-9.90;100.00;93204.91;5051499;28;20055;-61
2024/01/16 07:32:34;;;;;;;17.95;7.05;;;;;;;-9.71;100.00;93205.47;5039106;28;20508;-61
2024/01/16 07:35:02;;;;;;;18.00;7.05;;;;;;;-9.73;100.00;93204.22;5052460;28;20057;-62
2024/01/16 07:37:30;;;;;;;21.52;8.10;;;;;;;-9.63;100.00;93211.13;5039511;28;20045;-61
2024/01/16 07:39:56;;;;;;;17.50;7.35;;;;;;;-9.45;100.00;93200.25;5052468;28;20394;-62
2024/01/16 07:42:23;;;;;;;21.13;8.45;;;;;;;-9.31;100.00;93205.47;5052173;28;20087;-61
2024/01/16 07:44:51;;;;;;;18.33;6.90;;;;;;;-9.17;100.00;93202.69;5052519;28;20045;-62
2024/01/16 07:47:18;;;;;;;14.43;6.47;;;;;;;-9.07;100.00;93204.25;5051919;28;20045;-62
2024/01/16 07:49:44;;;;;;;16.38;6.47;;;;;;;-8.97;100.00;93197.84;5052171;28;20075;-61
2024/01/16 07:52:12;;;;;;;16.70;6.43;;;;;;;-8.87;100.00;93197.56;5052473;28;20037;-61
2024/01/16 07:54:39;;;;;;;16.77;6.60;;;;;;;-8.99;100.00;93200.84;5051825;28;20052;-62
2024/01/16 07:57:06;;;;;;;16.95;6.75;;;;;;;-9.08;100.00;93202.69;5052341;28;20118;-62
2024/01/16 07:59:33;;;;;;;17.65;7.20;;;;;;;-9.03;100.00;93202.56;5051828;28;20048;-62
2024/01/16 08:02:00;;;;;;;19.98;7.50;;;;;;;-8.95;100.00;93201.78;5051101;28;20055;-61
2024/01/16 08:04:27;;;;;;;21.08;7.55;;;;;;;-8.85;100.00;93201.47;5051731;28;20045;-61
2024/01/16 08:06:54;;;;;;;20.08;7.70;;;;;;;-8.67;100.00;93204.13;5051492;28;20047;-61
2024/01/16 08:09:21;;;;;;;21.83;9.23;;;;;;;-7.01;100.00;93203.69;5051752;28;20041;-62
2024/01/16 08:11:48;;;;;;;25.38;9.73;;;;;;;-3.66;100.00;93197.97;5067256;28;20041;-62
2024/01/16 08:14:15;;;;;;;23.42;9.55;;;;;;;-1.04;97.50;93204.31;5052008;28;20033;-63
2024/01/16 08:16:42;;;;;;;28.60;12.05;;;;;;;-0.67;85.65;93197.56;5050574;28;21734;-60
2024/01/16 08:19:09;;;;;;;29.17;12.73;;;;;;;-0.23;67.82;93199.75;5051151;28;20044;-60
2024/01/16 08:21:36;;;;;;;28.13;12.35;;;;;;;0.31;65.08;93182.31;5051306;28;20048;-60
2024/01/16 08:24:03;;;;;;;26.98;13.02;;;;;;;0.85;63.17;93182.09;5050654;28;20047;-60
2024/01/16 08:26:30;;;;;;;27.17;13.50;;;;;;;1.60;56.35;93185.38;5050749;28;20041;-61
2024/01/16 08:28:57;;;;;;;27.60;12.27;;;;;;;2.67;53.85;93185.09;5051567;28;20045;-61
2024/01/16 08:31:24;;;;;;;23.67;13.32;;;;;;;3.94;51.87;93176.63;5050748;28;20033;-61
2024/01/16 08:33:50;;;;;;;23.27;11.75;;;;;;;4.94;48.20;93167.28;5051579;28;20041;-61
2024/01/16 08:36:20;;;;;;;21.95;11.95;;;;;;;5.56;45.36;93168.38;5051024;28;20118;-61
2024/01/16 08:38:47;;;;;;;25.08;12.68;;;;;;;6.02;41.96;93163.72;5051392;28;20036;-62
2024/01/16 08:41:14;;;;;;;21.83;12.37;;;;;;;7.43;39.79;93168.94;5051922;28;20516;-61
2024/01/16 08:43:40;;;;;;;23.63;14.23;;;;;;;7.95;39.08;93168.47;5050435;28;20677;-62
2024/01/16 08:46:07;;;;;;;27.02;15.57;;;;;;;8.16;36.70;93161.09;5050231;28;20456;-61
2024/01/16 08:48:34;;;;;;;24.13;15.27;;;;;;;7.29;37.27;93155.53;5051084;28;20052;-61
2024/01/16 08:51:03;;;;;;;21.52;13.20;;;;;;;6.16;37.87;93165.53;5050233;28;20039;-62
2024/01/16 08:53:30;;;;;;;24.30;13.93;;;;;;;5.37;39.64;93163.47;5050867;28;20040;-63
2024/01/16 08:55:57;;;;;;;25.85;15.63;;;;;;;6.00;38.65;93161.41;5051329;28;20049;-62
2024/01/16 08:58:24;;;;;;;23.10;12.50;;;;;;;5.55;39.47;93168.78;5050619;28;20041;-62
2024/01/16 09:00:51;;;;;;;22.52;11.48;;;;;;;5.96;40.25;93168.06;5049339;28;20500;-61
2024/01/16 09:03:18;;;;;;;22.70;13.20;;;;;;;6.74;38.10;93157.44;5048630;28;20040;-63
2024/01/16 09:05:45;;;;;;;21.90;12.93;;;;;;;6.32;39.10;93154.84;5050786;28;20133;-62
2024/01/16 09:08:12;;;;;;;34.70;18.42;;;;;;;5.57;40.06;93150.09;5051254;28;20053;-63
2024/01/16 09:10:39;;;;;;;28.70;16.30;;;;;;;5.94;39.09;93156.78;5050608;28;20035;-63
2024/01/16 09:13:07;;;;;;;20.80;12.27;;;;;;;6.39;39.02;93162.91;5051188;28;20041;-62
2024/01/16 09:15:34;;;;;;;33.35;18.92;;;;;;;3.93;41.81;93174.31;5050739;28;20493;-63
2024/01/16 09:18:01;;;;;;;21.07;12.07;;;;;;;2.30;44.59;93164.50;5050715;28;20418;-63
2024/01/16 09:20:28;;;;;;;19.95;11.02;;;;;;;1.27;48.11;93164.66;5048806;28;20048;-63
2024/01/16 09:22:55;;;;;;;20.15;11.77;;;;;;;0.64;51.23;93164.53;5051114;28;20041;-63
2024/01/16 09:25:24;;;;;;;22.48;12.00;;;;;;;0.94;51.91;93155.53;5050363;28;20405;-64
2024/01/16 09:27:51;;;;;;;18.35;9.45;;;;;;;1.64;50.92;93155.66;5050780;28;20049;-61
2024/01/16 09:30:19;;;;;;;17.80;9.53;;;;;;;3.79;48.86;93148.72;5050146;28;20033;-62
2024/01/16 09:32:45;;;;;;;20.38;12.07;;;;;;;7.04;40.99;93147.69;5050681;28;20041;-63
2024/01/16 09:35:12;;;;;;;16.42;9.45;;;;;;;4.96;41.69;93145.91;5037159;28;20037;-61
2024/01/16 09:37:39;;;;;;;18.10;10.00;;;;;;;5.68;41.40;93150.78;5049991;28;20049;-62
2024/01/16 09:40:07;;;;;;;18.45;9.05;;;;;;;3.89;44.27;93157.25;5050273;28;20040;-62
2024/01/16 09:42:34;;;;;;;17.87;9.70;;;;;;;5.03;44.09;93150.53;5049876;28;20118;-62
2024/01/16 09:45:04;;;;;;;18.58;10.00;;;;;;;4.64;44.15;93159.66;5050084;28;20041;-63
2024/01/16 09:47:32;;;;;;;21.38;10.35;;;;;;;5.85;42.49;93153.75;5036854;28;20053;-62
2024/01/16 09:50:02;;;;;;;19.52;11.68;;;;;;;2.06;47.28;93151.63;5050102;28;20037;-62
2024/01/16 09:52:29;;;;;;;25.38;13.10;;;;;;;0.78;55.30;93153.06;5049829;28;20471;-62
2024/01/16 09:54:56;;;;;;;22.47;12.40;;;;;;;4.82;48.52;93148.72;5048755;28;20044;-62
2024/01/16 09:57:25;;;;;;;20.05;10.40;;;;;;;7.36;43.13;93149.94;5049776;28;20043;-63
2024/01/16 09:59:52;;;;;;;20.88;11.20;;;;;;;7.72;40.96;93135.72;5049785;28;20037;-63
2024/01/16 10:02:23;;;;;;;20.48;11.45;;;;;;;8.99;36.37;93127.41;5047918;28;20057;-63
2024/01/16 10:04:49;;;;;;;19.88;11.32;;;;;;;7.98;38.09;93134.84;5050127;28;20037;-63
2024/01/16 10:07:17;;;;;;;22.13;12.23;;;;;;;9.14;37.65;93123.19;5049506;28;20045;-62
2024/01/16 10:09:44;;;;;;;18.63;11.98;;;;;;;9.69;34.67;93115.22;5050037;28;20067;-63
2024/01/16 10:12:10;;;;;;;19.48;11.27;;;;;;;11.30;34.62;93118.25;5050028;28;20079;-63
2024/01/16 10:14:38;;;;;;;19.38;10.63;;;;;;;11.09;33.26;93110.69;5049559;28;20374;-62
2024/01/16 10:17:07;;;;;;;20.98;12.30;;;;;;;9.92;35.19;93110.75;5049519;28;20037;-63
2024/01/16 10:19:33;;;;;;;23.60;14.07;;;;;;;12.80;31.94;93114.47;5048982;28;20162;-62
2024/01/16 10:22:20;;;;;;;20.95;14.13;;;;;;;11.12;31.64;93113.31;5049789;28;20041;-62
2024/01/16 10:25:04;;;;;;;19.63;12.98;;;;;;;8.65;35.73;93125.78;5048923;28;20642;-63
2024/01/16 10:27:32;;;;;;;20.13;12.60;;;;;;;8.25;36.69;93123.06;5049262;28;20075;-63
2024/01/16 10:29:58;;;;;;;20.02;12.68;;;;;;;9.63;35.88;93105.97;5049839;28;20045;-63
2024/01/16 10:32:32;;;;;;;22.27;13.30;;;;;;;9.88;35.22;93113.59;5048773;28;20052;-63
2024/01/16 10:35:02;;;;;;;22.00;12.40;;;;;;;9.98;34.75;93104.31;5048976;28;20043;-64
2024/01/16 10:37:29;;;;;;;40.38;20.95;;;;;;;10.24;34.47;93093.47;5048728;28;20045;-63
2024/01/16 10:39:56;;;;;;;30.45;19.77;;;;;;;11.29;33.25;93091.22;5049387;28;20071;-63
2024/01/16 10:42:22;;;;;;;20.17;13.25;;;;;;;12.55;31.64;93079.56;5048287;28;20049;-64
2024/01/16 10:44:55;;;;;;;23.30;14.47;;;;;;;11.49;32.55;93077.25;5049513;28;20033;-63
2024/01/16 10:47:22;;;;;;;21.42;13.77;;;;;;;13.32;30.62;93071.59;5049111;28;20053;-64
2024/01/16 10:49:49;;;;;;;25.45;16.23;;;;;;;13.74;30.14;93064.78;5049400;28;20086;-64
2024/01/16 10:52:18;;;;;;;20.35;14.00;;;;;;;14.44;29.33;93064.22;5048631;28;20045;-64
2024/01/16 10:54:46;;;;;;;20.10;11.93;;;;;;;11.93;30.67;93066.41;5049563;28;20041;-64
2024/01/16 10:57:14;;;;;;;17.17;11.47;;;;;;;11.75;31.63;93058.72;5049340;28;20055;-64
2024/01/16 11:00:20;;;;;;;18.85;11.68;;;;;;;12.09;31.04;93057.22;5048916;28;20067;-63
2024/01/16 11:03:12;;;;;;;19.00;12.35;;;;;;;10.04;34.88;93066.19;4977663;28;20749;-64
2024/01/16 11:05:40;;;;;;;24.17;15.60;;;;;;;9.96;34.47;93060.13;5036655;28;20123;-64
2024/01/16 11:08:09;;;;;;;24.58;14.30;;;;;;;9.66;34.83;93064.06;5048013;28;20067;-64
2024/01/16 11:10:37;;;;;;;24.77;15.40;;;;;;;9.16;36.51;93074.25;5047317;28;20052;-64
2024/01/16 11:13:04;;;;;;;20.63;12.45;;;;;;;9.70;35.54;93072.94;5048998;28;20044;-64
2024/01/16 11:15:32;;;;;;;20.60;12.77;;;;;;;7.85;39.96;93073.84;5048568;28;20053;-64
2024/01/16 11:18:04;;;;;;;17.92;10.40;;;;;;;9.94;35.81;93068.00;5047938;28;20109;-64
2024/01/16 11:20:34;;;;;;;22.40;13.65;;;;;;;9.24;36.28;93072.13;5048698;28;20049;-63
2024/01/16 11:23:21;;;;;;;16.33;10.23;;;;;;;11.06;35.60;93065.63;5048581;28;20033;-63